createdAt,value
2018-11-23T00:01:25.586Z,5.90
2018-11-23T00:03:58.761Z,5.00
2018-11-23T00:06:28.244Z,3.43
2018-11-23T00:08:58.121Z,8.67
2018-11-23T00:11:27.820Z,4.40
2018-11-23T00:14:01.905Z,5.73
2018-11-23T00:16:31.241Z,5.70
2018-11-23T00:19:01.401Z,3.67
2018-11-23T00:21:31.147Z,3.80
2018-11-23T00:24:00.854Z,3.07
2018-11-23T00:26:30.652Z,2.57
2018-11-23T00:29:00.145Z,2.98
2018-11-23T00:31:29.583Z,2.30
2018-11-23T00:33:59.062Z,3.03
2018-11-23T00:36:28.535Z,3.73
2018-11-23T00:38:58.045Z,3.67
2018-11-23T00:41:29.329Z,3.83
2018-11-23T00:43:59.370Z,2.77
2018-11-23T00:46:28.766Z,3.47
2018-11-23T00:48:58.201Z,4.22
2018-11-23T00:51:28.190Z,3.40
2018-11-23T00:53:58.027Z,2.55
2018-11-23T00:56:27.685Z,3.50
2018-11-23T00:58:56.996Z,3.85
2018-11-23T01:01:26.507Z,2.65
2018-11-23T01:03:55.933Z,3.20
2018-11-23T01:06:25.634Z,3.03
2018-11-23T01:08:55.287Z,2.05
2018-11-23T01:11:24.961Z,2.50
2018-11-23T01:13:54.353Z,1.98
2018-11-23T01:16:25.328Z,2.63
2018-11-23T01:18:54.776Z,2.97
2018-11-23T01:21:24.256Z,1.87
2018-11-23T01:23:54.649Z,2.90
2018-11-23T01:26:24.921Z,3.07
2018-11-23T01:28:55.104Z,2.20
2018-11-23T01:31:25.142Z,2.60
2018-11-23T01:33:54.581Z,1.67
2018-11-23T01:36:24.193Z,2.72
2018-11-23T01:38:53.599Z,2.57
2018-11-23T01:41:23.259Z,2.77
2018-11-23T01:43:53.088Z,2.47
2018-11-23T01:46:22.582Z,2.20
2018-11-23T01:48:52.207Z,3.23
2018-11-23T01:51:21.735Z,2.03
2018-11-23T01:53:51.183Z,3.40
2018-11-23T01:56:20.681Z,3.27
2018-11-23T01:58:50.235Z,3.23
2018-11-23T02:01:19.734Z,3.33
2018-11-23T02:03:49.779Z,1.80
2018-11-23T02:06:19.239Z,1.85
2018-11-23T02:08:48.887Z,1.90
2018-11-23T02:11:18.290Z,1.90
2018-11-23T02:13:47.700Z,3.00
2018-11-23T02:16:18.664Z,2.27
2018-11-23T02:18:48.301Z,4.07
2018-11-23T02:21:17.733Z,1.90
2018-11-23T02:23:47.143Z,2.07
2018-11-23T02:26:16.568Z,2.37
2018-11-23T02:28:45.972Z,2.57
2018-11-23T02:31:18.572Z,2.17
2018-11-23T02:33:48.000Z,1.90
2018-11-23T02:36:17.395Z,2.17
2018-11-23T02:38:47.270Z,2.08
2018-11-23T02:41:17.877Z,3.53
2018-11-23T02:43:48.264Z,2.52
2018-11-23T02:46:17.761Z,1.97
2018-11-23T02:48:47.744Z,2.30
2018-11-23T02:51:17.168Z,2.37
2018-11-23T02:53:47.319Z,1.83
2018-11-23T02:56:17.093Z,1.90
2018-11-23T02:58:46.540Z,2.13
2018-11-23T03:01:16.044Z,2.13
2018-11-23T03:03:45.534Z,1.87
2018-11-23T03:06:15.291Z,2.10
2018-11-23T03:08:44.892Z,2.33
2018-11-23T03:11:14.944Z,2.10
2018-11-23T03:13:44.370Z,2.17
2018-11-23T03:16:13.800Z,2.72
2018-11-23T03:18:43.240Z,2.12
2018-11-23T03:21:12.927Z,2.67
2018-11-23T03:23:42.359Z,3.05
2018-11-23T03:26:11.744Z,3.33
2018-11-23T03:28:45.326Z,2.27
2018-11-23T03:31:14.723Z,2.25
2018-11-23T03:33:44.151Z,2.30
2018-11-23T03:36:14.271Z,3.33
2018-11-23T03:38:43.857Z,2.77
2018-11-23T03:41:14.136Z,2.12
2018-11-23T03:43:44.000Z,3.37
2018-11-23T03:46:13.976Z,3.65
2018-11-23T03:48:43.388Z,2.67
2018-11-23T03:51:12.838Z,3.35
2018-11-23T03:53:42.250Z,3.25
2018-11-23T03:59:22.951Z,2.72
2018-11-23T04:01:52.468Z,2.87
2018-11-23T04:04:22.806Z,2.80
2018-11-23T04:06:52.246Z,2.87
2018-11-23T04:09:25.333Z,2.53
2018-11-23T04:11:54.743Z,2.65
2018-11-23T04:14:24.180Z,4.55
2018-11-23T04:16:54.599Z,4.57
2018-11-23T04:19:24.119Z,2.97
2018-11-23T04:21:53.559Z,2.67
2018-11-23T04:24:22.985Z,2.90
2018-11-23T04:26:52.456Z,2.37
2018-11-23T04:29:21.989Z,3.47
2018-11-23T04:31:51.388Z,3.22
2018-11-23T04:34:20.835Z,2.85
2018-11-23T04:36:50.254Z,3.22
2018-11-23T04:39:19.811Z,2.40
2018-11-23T04:41:49.828Z,3.08
2018-11-23T04:44:19.220Z,3.37
2018-11-23T04:46:48.640Z,2.75
2018-11-23T04:49:17.792Z,3.73
2018-11-23T04:51:47.397Z,3.17
2018-11-23T04:54:16.841Z,3.03
2018-11-23T04:56:46.299Z,2.60
2018-11-23T04:59:15.717Z,3.58
2018-11-23T05:01:45.157Z,2.63
2018-11-23T05:04:18.547Z,3.22
2018-11-23T05:06:47.993Z,2.30
2018-11-23T05:09:17.435Z,2.73
2018-11-23T05:11:47.492Z,3.65
2018-11-23T05:14:17.907Z,2.67
2018-11-23T05:16:47.444Z,4.12
2018-11-23T05:19:16.932Z,4.63
2018-11-23T05:21:46.736Z,4.30
2018-11-23T05:24:16.192Z,4.30
2018-11-23T05:26:47.174Z,2.67
2018-11-23T05:29:16.575Z,2.67
2018-11-23T05:31:45.980Z,3.07
2018-11-23T05:34:15.491Z,3.12
2018-11-23T05:36:44.922Z,3.00
2018-11-23T05:39:15.586Z,3.52
2018-11-23T05:41:45.048Z,2.83
2018-11-23T05:44:14.695Z,2.40
2018-11-23T05:46:44.251Z,2.67
2018-11-23T05:49:13.654Z,2.33
2018-11-23T05:51:43.307Z,3.00
2018-11-23T05:54:12.748Z,2.60
2018-11-23T05:56:42.217Z,2.07
2018-11-23T05:59:12.356Z,2.23
2018-11-23T06:01:41.925Z,1.73
2018-11-23T06:04:11.451Z,1.90
2018-11-23T06:06:42.440Z,1.90
2018-11-23T06:09:10.390Z,2.90
2018-11-23T06:11:39.865Z,1.75
2018-11-23T06:14:09.313Z,1.90
2018-11-23T06:16:40.344Z,1.67
2018-11-23T06:19:10.307Z,1.75
2018-11-23T06:21:40.085Z,2.17
2018-11-23T06:24:09.732Z,3.40
2018-11-23T06:26:43.066Z,2.08
2018-11-23T06:29:12.719Z,3.27
2018-11-23T06:31:42.929Z,2.12
2018-11-23T06:34:15.755Z,2.40
2018-11-23T06:36:45.572Z,2.15
2018-11-23T06:39:15.249Z,3.83
2018-11-23T06:41:44.921Z,3.83
2018-11-23T06:44:14.738Z,3.60
2018-11-23T06:46:44.346Z,3.30
2018-11-23T06:49:13.732Z,3.20
2018-11-23T06:51:47.109Z,2.65
2018-11-23T06:54:16.683Z,4.97
2018-11-23T06:56:47.611Z,5.80
2018-11-23T06:59:17.571Z,5.58
2018-11-23T07:01:47.880Z,3.22
2018-11-23T07:04:17.352Z,3.65
2018-11-23T07:09:16.867Z,4.37
2018-11-23T07:13:54.089Z,3.70
2018-11-23T07:16:23.530Z,3.93
2018-11-23T07:18:53.399Z,3.65
2018-11-23T07:21:22.867Z,5.53
2018-11-23T07:23:52.811Z,3.75
2018-11-23T07:26:22.343Z,5.17
2018-11-23T07:28:57.648Z,4.13
2018-11-23T07:31:27.130Z,3.60
2018-11-23T07:33:56.707Z,3.92
2018-11-23T07:36:28.274Z,4.27
2018-11-23T07:38:57.846Z,7.17
2018-11-23T07:42:33.675Z,22.98
2018-11-23T07:45:03.171Z,11.00
2018-11-23T07:47:32.599Z,12.17
2018-11-23T07:50:02.462Z,13.13
2018-11-23T07:52:31.875Z,12.33
2018-11-23T07:55:01.643Z,16.70
2018-11-23T07:57:31.377Z,17.82
2018-11-23T08:00:00.847Z,16.93
2018-11-23T08:02:30.833Z,13.43
2018-11-23T08:05:00.230Z,13.45
2018-11-23T08:07:29.315Z,16.10
2018-11-23T08:09:58.479Z,10.00
2018-11-23T08:12:27.869Z,14.83
2018-11-23T08:14:57.271Z,9.53
2018-11-23T08:17:26.772Z,7.72
2018-11-23T08:19:56.228Z,7.97
2018-11-23T08:22:25.606Z,6.70
2018-11-23T08:24:55.435Z,8.40
2018-11-23T08:27:24.839Z,8.68
2018-11-23T08:29:54.263Z,7.27
2018-11-23T08:32:27.831Z,6.53
2018-11-23T08:34:57.202Z,8.50
2018-11-23T08:37:27.212Z,7.40
2018-11-23T08:39:56.939Z,8.90
2018-11-23T08:42:26.333Z,7.50
2018-11-23T08:44:55.794Z,6.27
2018-11-23T08:47:25.654Z,7.20
2018-11-23T08:49:55.119Z,6.10
2018-11-23T08:52:25.053Z,6.72
2018-11-23T08:54:54.630Z,6.77
2018-11-23T08:57:24.742Z,5.55
2018-11-23T08:59:54.085Z,5.47
2018-11-23T09:02:24.054Z,8.53
2018-11-23T09:04:53.552Z,8.53
2018-11-23T09:07:22.962Z,6.03
2018-11-23T09:09:53.202Z,6.65
2018-11-23T09:12:22.625Z,5.73
2018-11-23T09:14:54.802Z,8.18
2018-11-23T09:17:24.207Z,5.20
2018-11-23T09:19:53.729Z,8.10
2018-11-23T09:22:23.669Z,5.67
2018-11-23T09:24:54.095Z,6.75
2018-11-23T09:27:23.466Z,6.73
2018-11-23T09:29:54.335Z,7.57
2018-11-23T09:32:29.315Z,6.47
2018-11-23T09:34:58.776Z,5.20
2018-11-23T09:37:28.705Z,5.37
2018-11-23T09:39:58.165Z,4.93
2018-11-23T09:42:27.522Z,7.40
2018-11-23T09:45:04.035Z,7.80
2018-11-23T09:47:33.487Z,4.90
2018-11-23T09:50:03.327Z,7.20
2018-11-23T09:52:35.989Z,7.30
2018-11-23T09:55:06.237Z,9.28
2018-11-23T09:57:35.557Z,8.50
2018-11-23T10:00:08.822Z,10.78
2018-11-23T10:02:38.233Z,9.80
2018-11-23T10:05:08.130Z,9.10
2018-11-23T10:07:38.033Z,9.80
2018-11-23T10:10:09.315Z,9.00
2018-11-23T10:12:38.690Z,6.80
2018-11-23T10:15:08.751Z,6.30
2018-11-23T10:17:38.242Z,7.33
2018-11-23T10:20:10.718Z,7.80
2018-11-23T10:22:40.626Z,7.55
2018-11-23T10:25:11.330Z,7.53
2018-11-23T10:27:41.477Z,9.73
2018-11-23T10:30:21.238Z,7.70
2018-11-23T10:32:55.295Z,7.75
2018-11-23T10:35:25.862Z,7.95
2018-11-23T10:37:57.242Z,7.45
2018-11-23T10:40:28.157Z,6.87
2018-11-23T10:42:58.218Z,7.10
2018-11-23T10:45:30.458Z,8.10
2018-11-23T10:48:00.903Z,5.83
2018-11-23T10:50:31.946Z,6.20
2018-11-23T10:53:02.398Z,5.20
2018-11-23T10:55:33.687Z,6.30
2018-11-23T10:58:03.254Z,5.07
2018-11-23T11:02:41.131Z,4.55
2018-11-23T11:05:15.771Z,5.92
2018-11-23T11:07:45.139Z,4.50
2018-11-23T11:10:15.193Z,3.05
2018-11-23T11:12:44.597Z,3.27
2018-11-23T11:15:13.700Z,4.33
2018-11-23T11:17:43.293Z,2.87
2018-11-23T11:20:12.675Z,3.63
2018-11-23T11:22:42.109Z,3.95
2018-11-23T11:25:11.948Z,2.23
2018-11-23T11:27:41.725Z,4.87
2018-11-23T11:30:14.603Z,8.68
2018-11-23T11:32:44.587Z,9.00
2018-11-23T11:35:14.096Z,6.27
2018-11-23T11:37:44.933Z,7.87
2018-11-23T11:40:15.819Z,3.37
2018-11-23T11:42:45.439Z,9.58
2018-11-23T11:45:17.984Z,6.60
2018-11-23T11:47:48.175Z,9.05
2018-11-23T11:50:17.534Z,4.30
2018-11-23T11:52:48.442Z,8.80
2018-11-23T11:55:19.178Z,7.47
2018-11-23T11:57:49.051Z,5.87
2018-11-23T12:00:22.370Z,7.53
2018-11-23T12:02:52.402Z,8.90
2018-11-23T12:05:21.806Z,6.53
2018-11-23T12:07:52.279Z,6.00
2018-11-23T12:10:23.959Z,3.03
2018-11-23T12:12:53.934Z,6.45
2018-11-23T12:15:23.405Z,5.97
2018-11-23T12:17:52.861Z,5.28
2018-11-23T12:20:24.478Z,7.20
2018-11-23T12:22:54.058Z,5.15
2018-11-23T12:25:23.770Z,5.63
2018-11-23T12:27:53.464Z,8.45
2018-11-23T12:30:23.352Z,14.23
2018-11-23T12:32:53.591Z,7.83
2018-11-23T12:35:23.485Z,6.95
2018-11-23T12:37:52.998Z,8.73
2018-11-23T12:40:22.594Z,13.28
2018-11-23T12:42:52.362Z,14.80
2018-11-23T12:45:23.414Z,12.10
2018-11-23T12:47:52.796Z,16.05
2018-11-23T12:50:23.771Z,10.32
2018-11-23T12:52:53.161Z,15.58
2018-11-23T12:55:23.142Z,15.20
2018-11-23T12:57:53.254Z,17.55
2018-11-23T13:00:24.062Z,15.93
2018-11-23T13:02:56.954Z,14.95
2018-11-23T13:05:27.718Z,14.83
2018-11-23T13:07:58.814Z,11.43
2018-11-23T13:10:29.208Z,11.57
2018-11-23T13:12:59.723Z,13.95
2018-11-23T13:15:29.810Z,11.80
2018-11-23T13:17:59.603Z,14.07
2018-11-23T13:20:29.023Z,15.68
2018-11-23T13:22:59.594Z,11.55
2018-11-23T13:25:31.121Z,20.05
2018-11-23T13:28:01.096Z,12.20
2018-11-23T13:33:21.370Z,7.28
2018-11-23T13:35:51.223Z,10.10
2018-11-23T13:38:27.527Z,9.35
2018-11-23T13:40:59.222Z,8.90
2018-11-23T13:43:33.216Z,9.80
2018-11-23T13:46:02.627Z,11.28
2018-11-23T13:48:38.945Z,8.50
2018-11-23T13:51:08.478Z,7.50
2018-11-23T13:53:45.085Z,9.50
2018-11-23T13:56:14.455Z,13.48
2018-11-23T13:58:55.563Z,12.55
2018-11-23T14:01:25.015Z,7.20
2018-11-23T14:04:03.576Z,6.65
2018-11-23T14:06:33.001Z,8.40
2018-11-23T14:09:13.567Z,13.50
2018-11-23T14:11:43.006Z,5.43
2018-11-23T14:14:17.350Z,11.60
2018-11-23T14:16:46.735Z,10.80
2018-11-23T14:19:28.027Z,9.83
2018-11-23T14:21:57.763Z,7.25
2018-11-23T14:24:38.822Z,5.58
2018-11-23T14:27:08.221Z,8.28
2018-11-23T14:29:48.997Z,7.35
2018-11-23T14:32:18.350Z,7.03
2018-11-23T14:34:56.734Z,10.10
2018-11-23T14:37:26.093Z,6.83
2018-11-23T14:39:55.514Z,8.10
2018-11-23T14:42:27.079Z,10.05
2018-11-23T14:44:56.490Z,7.43
2018-11-23T14:50:22.644Z,8.13
2018-11-23T14:52:55.031Z,8.83
2018-11-23T14:55:24.772Z,9.10
2018-11-23T14:57:55.297Z,8.43
2018-11-23T15:00:27.704Z,5.90
2018-11-23T15:02:58.709Z,8.50
2018-11-23T15:05:28.251Z,7.28
2018-11-23T15:07:57.996Z,11.85
2018-11-23T15:10:28.687Z,8.55
2018-11-23T15:15:37.813Z,7.90
2018-11-23T15:18:11.751Z,9.58
2018-11-23T15:20:43.548Z,7.85
2018-11-23T15:23:22.020Z,8.50
2018-11-23T15:25:52.017Z,13.72
2018-11-23T15:28:21.513Z,9.00
2018-11-23T15:30:50.953Z,12.13
2018-11-23T15:33:20.513Z,10.40
2018-11-23T15:35:50.052Z,10.50
2018-11-23T15:38:23.288Z,10.95
2018-11-23T15:40:52.870Z,13.95
2018-11-23T15:43:22.480Z,16.50
2018-11-23T15:45:51.904Z,15.48
2018-11-23T15:48:21.493Z,10.13
2018-11-23T15:50:51.051Z,9.63
2018-11-23T15:53:20.588Z,11.70
2018-11-23T15:55:50.106Z,11.93
2018-11-23T15:58:19.684Z,11.55
2018-11-23T16:00:49.709Z,10.20
2018-11-23T16:03:19.233Z,16.97
2018-11-23T16:05:48.928Z,15.50
2018-11-23T16:08:19.892Z,25.12
2018-11-23T16:10:50.029Z,129.23
2018-11-23T16:13:19.939Z,539.23
2018-11-23T16:18:45.857Z,350.07
2018-11-23T16:21:26.272Z,129.78
2018-11-23T16:23:55.835Z,79.60
2018-11-23T16:26:35.201Z,47.03
2018-11-23T16:29:04.829Z,42.60
2018-11-23T16:31:34.326Z,41.60
2018-11-23T16:34:03.877Z,38.90
2018-11-23T16:36:33.439Z,41.60
2018-11-23T16:39:11.473Z,33.60
2018-11-23T16:41:40.953Z,35.93
2018-11-23T16:44:10.443Z,32.83
2018-11-23T16:46:39.986Z,27.00
2018-11-23T16:49:09.625Z,27.63
2018-11-23T16:51:50.742Z,41.70
2018-11-23T16:54:20.948Z,58.25
2018-11-23T16:56:50.487Z,52.93
2018-11-23T16:59:29.884Z,57.00
2018-11-23T17:02:00.466Z,49.80
2018-11-23T17:04:42.383Z,44.17
2018-11-23T17:07:13.059Z,36.10
2018-11-23T17:09:53.993Z,39.83
2018-11-23T17:12:23.507Z,34.37
2018-11-23T17:15:02.445Z,41.05
2018-11-23T17:17:31.794Z,36.40
2018-11-23T17:20:09.614Z,38.17
2018-11-23T17:22:40.020Z,34.33
2018-11-23T17:25:18.396Z,33.50
2018-11-23T17:27:48.184Z,30.20
2018-11-23T17:30:26.832Z,30.27
2018-11-23T17:32:56.538Z,29.33
2018-11-23T17:35:26.346Z,30.57
2018-11-23T17:37:56.279Z,27.52
2018-11-23T17:40:27.630Z,26.33
2018-11-23T17:42:58.447Z,22.48
2018-11-23T17:48:05.453Z,21.70
2018-11-23T17:50:36.440Z,17.50
2018-11-23T17:53:12.159Z,15.53
2018-11-23T17:55:42.401Z,15.40
2018-11-23T17:58:12.391Z,15.93
2018-11-23T18:00:42.258Z,13.03
2018-11-23T18:03:12.502Z,14.40
2018-11-23T18:05:42.325Z,15.63
2018-11-23T18:08:12.100Z,16.02
2018-11-23T18:10:41.841Z,14.30
2018-11-23T18:13:12.182Z,12.58
2018-11-23T18:15:42.106Z,14.00
2018-11-23T18:18:11.936Z,11.47
2018-11-23T18:20:41.673Z,14.47
2018-11-23T18:23:11.414Z,12.98
2018-11-23T18:25:41.478Z,12.10
2018-11-23T18:28:12.810Z,11.80
2018-11-23T18:30:42.837Z,14.85
2018-11-23T18:33:13.184Z,12.80
2018-11-23T18:35:43.039Z,12.43
2018-11-23T18:38:12.817Z,13.23
2018-11-23T18:40:42.657Z,11.70
2018-11-23T18:43:15.653Z,9.50
2018-11-23T18:45:45.948Z,10.35
2018-11-23T18:48:15.472Z,9.10
2018-11-23T18:50:45.328Z,8.38
2018-11-23T18:53:15.428Z,7.40
2018-11-23T18:55:45.010Z,7.90
2018-11-23T18:58:18.244Z,7.30
2018-11-23T19:00:48.387Z,5.97
2018-11-23T19:03:18.041Z,7.25
2018-11-23T19:05:48.197Z,7.25
2018-11-23T19:08:17.699Z,8.07
2018-11-23T19:10:47.393Z,8.68
2018-11-23T19:13:16.962Z,4.90
2018-11-23T19:15:47.063Z,7.87
2018-11-23T19:18:18.551Z,7.97
2018-11-23T19:20:49.035Z,9.78
2018-11-23T19:23:19.016Z,11.12
2018-11-23T19:25:49.488Z,11.05
2018-11-23T19:28:19.882Z,9.83
2018-11-23T19:30:49.871Z,11.13
2018-11-23T19:33:19.489Z,11.27
2018-11-23T19:35:49.035Z,11.75
2018-11-23T19:38:18.539Z,10.50
2018-11-23T19:40:48.264Z,10.75
2018-11-23T19:43:17.746Z,9.37
2018-11-23T19:45:48.689Z,10.82
2018-11-23T19:48:18.227Z,11.57
2018-11-23T19:50:48.255Z,10.03
2018-11-23T19:53:17.930Z,9.75
2018-11-23T19:55:47.631Z,7.83
2018-11-23T19:58:17.214Z,9.85
2018-11-23T20:00:46.753Z,9.00
2018-11-23T20:03:16.787Z,11.43
2018-11-23T20:05:46.427Z,9.33
2018-11-23T20:08:16.058Z,8.28
2018-11-23T20:10:46.168Z,10.23
2018-11-23T20:13:15.730Z,9.00
2018-11-23T20:15:45.485Z,7.97
2018-11-23T20:18:14.966Z,7.30
2018-11-23T20:20:48.575Z,7.27
2018-11-23T20:23:18.281Z,6.17
2018-11-23T20:25:48.539Z,7.12
2018-11-23T20:28:18.323Z,9.13
2018-11-23T20:30:48.612Z,7.95
2018-11-23T20:33:18.687Z,9.53
2018-11-23T20:35:48.201Z,8.73
2018-11-23T20:38:17.762Z,8.00
2018-11-23T20:40:47.436Z,8.87
2018-11-23T20:43:17.925Z,7.80
2018-11-23T20:45:47.900Z,6.78
2018-11-23T20:48:17.470Z,8.83
2018-11-23T20:50:51.094Z,9.00
2018-11-23T20:53:21.281Z,7.22
2018-11-23T20:55:52.065Z,8.23
2018-11-23T20:58:21.749Z,8.35
2018-11-23T21:00:52.138Z,7.62
2018-11-23T21:03:21.931Z,5.87
2018-11-23T21:05:51.774Z,5.85
2018-11-23T21:08:21.435Z,10.00
2018-11-23T21:10:51.047Z,27.90
2018-11-23T21:13:21.401Z,30.35
2018-11-23T21:15:50.944Z,27.07
2018-11-23T21:18:20.597Z,20.40
2018-11-23T21:20:50.518Z,15.23
2018-11-23T21:23:20.514Z,14.00
2018-11-23T21:25:51.002Z,14.00
2018-11-23T21:28:20.912Z,16.30
2018-11-23T21:30:51.257Z,12.60
2018-11-23T21:33:21.177Z,17.70
2018-11-23T21:35:51.232Z,12.37
2018-11-23T21:38:21.518Z,15.50
2018-11-23T21:40:51.825Z,15.68
2018-11-23T21:43:21.593Z,14.30
2018-11-23T21:45:51.587Z,13.13
2018-11-23T21:48:23.103Z,14.28
2018-11-23T21:50:52.925Z,13.62
2018-11-23T21:53:23.302Z,13.72
2018-11-23T21:55:53.629Z,18.45
2018-11-23T21:58:24.030Z,20.88
2018-11-23T22:00:58.264Z,19.90
2018-11-23T22:03:28.792Z,18.92
2018-11-23T22:06:02.834Z,19.70
2018-11-23T22:08:32.742Z,21.77
2018-11-23T22:11:03.751Z,20.97
2018-11-23T22:13:39.142Z,18.50
2018-11-23T22:16:09.937Z,20.33
2018-11-23T22:18:39.897Z,19.67
2018-11-23T22:21:10.278Z,18.23
2018-11-23T22:23:39.978Z,17.30
2018-11-23T22:26:09.877Z,18.90
2018-11-23T22:28:40.231Z,15.93
2018-11-23T22:31:10.125Z,14.70
2018-11-23T22:33:39.910Z,14.13
2018-11-23T22:36:10.147Z,12.03
2018-11-23T22:38:39.896Z,13.40
2018-11-23T22:41:10.268Z,12.82
2018-11-23T22:43:40.560Z,16.35
2018-11-23T22:46:10.429Z,15.43
2018-11-23T22:48:40.191Z,13.32
2018-11-23T22:51:10.064Z,14.07
2018-11-23T22:53:39.875Z,13.38
2018-11-23T22:56:09.803Z,11.30
2018-11-23T22:58:39.582Z,12.93
2018-11-23T23:01:09.436Z,12.70
2018-11-23T23:03:39.255Z,10.95
2018-11-23T23:06:13.117Z,10.28
2018-11-23T23:08:42.890Z,9.65
2018-11-23T23:11:14.318Z,12.30
2018-11-23T23:13:44.842Z,11.90
2018-11-23T23:16:15.532Z,9.88
2018-11-23T23:18:45.504Z,10.50
2018-11-23T23:21:15.514Z,11.03
2018-11-23T23:23:46.151Z,11.85
2018-11-23T23:26:16.675Z,11.20
2018-11-23T23:28:46.435Z,8.60
2018-11-23T23:31:16.422Z,9.18
2018-11-23T23:33:46.286Z,9.73
2018-11-23T23:36:16.091Z,10.97
2018-11-23T23:38:47.081Z,8.60
2018-11-23T23:41:17.060Z,9.77
2018-11-23T23:43:50.277Z,10.07
2018-11-23T23:46:20.142Z,8.20
2018-11-23T23:51:25.200Z,8.27
2018-11-23T23:56:30.912Z,10.32
2018-11-23T23:59:04.433Z,9.00
